createdAt,value
2023-05-17T00:00:54.741Z,7.60
2023-05-17T00:01:57.275Z,6.20
2023-05-17T00:02:59.687Z,7.30
2023-05-17T00:04:02.827Z,5.30
2023-05-17T00:05:06.014Z,7.50
2023-05-17T00:06:09.670Z,7.10
2023-05-17T00:07:12.158Z,8.30
2023-05-17T00:08:14.982Z,6.30
2023-05-17T00:09:17.367Z,7.40
2023-05-17T00:10:19.980Z,7.50
2023-05-17T00:11:23.441Z,7.50
2023-05-17T00:12:25.936Z,4.50
2023-05-17T00:13:28.524Z,7.40
2023-05-17T00:14:31.125Z,8.30
2023-05-17T00:15:34.421Z,8.20
2023-05-17T00:16:37.481Z,8.20
2023-05-17T00:17:40.169Z,7.00
2023-05-17T00:18:42.909Z,8.40
2023-05-17T00:19:45.735Z,7.91
2023-05-17T00:20:48.393Z,7.55
2023-05-17T00:21:50.792Z,8.40
2023-05-17T00:22:53.269Z,8.60
2023-05-17T00:23:55.808Z,6.60
2023-05-17T00:24:58.410Z,7.70
2023-05-17T00:26:01.175Z,6.70
2023-05-17T00:27:04.353Z,7.60
2023-05-17T00:28:06.788Z,8.60
2023-05-17T00:29:09.930Z,8.30
2023-05-17T00:30:14.045Z,8.30
2023-05-17T00:31:16.673Z,8.50
2023-05-17T00:32:19.896Z,6.90
2023-05-17T00:33:22.273Z,8.00
2023-05-17T00:34:24.656Z,7.70
2023-05-17T00:35:28.508Z,8.30
2023-05-17T00:36:31.269Z,8.80
2023-05-17T00:37:33.917Z,6.20
2023-05-17T00:38:36.792Z,8.50
2023-05-17T00:39:39.330Z,8.20
2023-05-17T00:40:42.337Z,8.50
2023-05-17T00:41:44.884Z,6.91
2023-05-17T00:42:47.552Z,8.00
2023-05-17T00:43:51.386Z,6.20
2023-05-17T00:44:53.936Z,7.60
2023-05-17T00:45:56.505Z,7.90
2023-05-17T00:47:01.040Z,7.60
2023-05-17T00:48:04.459Z,8.30
2023-05-17T00:49:07.156Z,6.20
2023-05-17T00:50:11.400Z,8.10
2023-05-17T00:51:15.969Z,7.20
2023-05-17T00:52:19.295Z,9.00
2023-05-17T00:53:22.565Z,8.00
2023-05-17T00:54:26.086Z,7.20
2023-05-17T00:55:29.402Z,7.70
2023-05-17T00:56:33.042Z,7.70
2023-05-17T00:57:37.192Z,7.00
2023-05-17T00:58:40.346Z,8.40
2023-05-17T00:59:44.491Z,7.30
2023-05-17T01:00:47.186Z,8.20
2023-05-17T01:01:51.072Z,9.00
2023-05-17T01:02:53.610Z,7.90
2023-05-17T01:03:57.201Z,8.00
2023-05-17T01:05:00.392Z,7.90
2023-05-17T01:06:05.973Z,7.40
2023-05-17T01:07:10.493Z,9.20
2023-05-17T01:08:13.752Z,7.60
2023-05-17T01:09:16.968Z,8.64
2023-05-17T01:10:19.823Z,9.00
2023-05-17T01:11:44.170Z,7.91
2023-05-17T01:12:50.710Z,9.00
2023-05-17T01:13:56.721Z,9.40
2023-05-17T01:15:12.277Z,7.50
2023-05-17T01:16:40.334Z,7.70
2023-05-17T01:18:04.978Z,5.50
2023-05-17T01:19:23.172Z,7.10
2023-05-17T01:20:38.246Z,7.00
2023-05-17T01:21:50.490Z,8.90
2023-05-17T01:23:21.972Z,7.30
2023-05-17T01:24:30.736Z,8.50
2023-05-17T01:25:57.848Z,7.80
2023-05-17T01:27:02.338Z,4.90
2023-05-17T01:28:07.613Z,8.00
2023-05-17T01:29:12.748Z,7.90
2023-05-17T01:30:17.835Z,7.70
2023-05-17T01:31:21.690Z,7.10
2023-05-17T01:32:25.393Z,6.10
2023-05-17T01:33:29.445Z,7.30
2023-05-17T01:34:32.148Z,7.00
2023-05-17T01:35:34.637Z,7.70
2023-05-17T01:36:37.224Z,7.60
2023-05-17T01:37:39.707Z,7.20
2023-05-17T01:38:42.182Z,7.30
2023-05-17T01:39:44.654Z,7.80
2023-05-17T01:40:56.582Z,7.80
2023-05-17T01:42:08.803Z,8.20
2023-05-17T01:43:44.187Z,7.90
2023-05-17T01:44:50.292Z,8.40
2023-05-17T01:46:15.151Z,7.80
2023-05-17T01:47:47.375Z,8.10
2023-05-17T01:50:07.003Z,8.10
2023-05-17T01:51:12.978Z,7.70
2023-05-17T01:52:31.240Z,6.60
2023-05-17T01:53:39.237Z,7.20
2023-05-17T01:54:48.772Z,7.10
2023-05-17T01:55:55.621Z,8.10
2023-05-17T01:57:01.575Z,8.00
2023-05-17T01:58:07.025Z,8.30
2023-05-17T01:59:12.805Z,5.80
2023-05-17T02:00:17.313Z,8.50
2023-05-17T02:01:22.540Z,7.00
2023-05-17T02:02:25.358Z,7.00
2023-05-17T02:03:29.006Z,8.18
2023-05-17T02:04:31.893Z,7.10
2023-05-17T02:05:36.193Z,5.90
2023-05-17T02:06:38.765Z,6.60
2023-05-17T02:07:41.324Z,8.00
2023-05-17T02:08:43.735Z,8.20
2023-05-17T02:09:46.504Z,7.50
2023-05-17T02:10:50.297Z,7.20
2023-05-17T02:11:53.622Z,8.10
2023-05-17T02:12:55.923Z,8.00
2023-05-17T02:13:58.331Z,8.80
2023-05-17T02:15:01.248Z,7.82
2023-05-17T02:16:04.067Z,7.60
2023-05-17T02:17:08.180Z,6.80
2023-05-17T02:18:11.341Z,7.40
2023-05-17T02:19:16.026Z,6.80
2023-05-17T02:20:20.507Z,7.60
2023-05-17T02:21:22.846Z,7.40
2023-05-17T02:22:25.207Z,7.40
2023-05-17T02:23:28.720Z,5.60
2023-05-17T02:24:31.667Z,7.90
2023-05-17T02:25:34.984Z,7.55
2023-05-17T02:26:37.765Z,7.60
2023-05-17T02:27:40.344Z,7.60
2023-05-17T02:28:43.765Z,9.20
2023-05-17T02:29:46.247Z,6.90
2023-05-17T02:30:48.913Z,7.40
2023-05-17T02:31:51.379Z,7.80
2023-05-17T02:32:56.269Z,8.00
2023-05-17T02:33:58.943Z,7.80
2023-05-17T02:35:01.412Z,6.20
2023-05-17T02:36:04.793Z,8.20
2023-05-17T02:37:08.457Z,8.30
2023-05-17T02:38:12.406Z,7.50
2023-05-17T02:39:16.837Z,8.90
2023-05-17T02:40:19.250Z,8.80
2023-05-17T02:41:21.610Z,8.90
2023-05-17T02:42:24.456Z,8.70
2023-05-17T02:43:27.001Z,6.73
2023-05-17T02:44:30.411Z,7.80
2023-05-17T02:45:33.030Z,7.90
2023-05-17T02:46:38.210Z,6.50
2023-05-17T02:47:40.614Z,8.00
2023-05-17T02:48:43.209Z,7.20
2023-05-17T02:49:45.602Z,7.60
2023-05-17T02:50:48.087Z,5.50
2023-05-17T02:51:50.559Z,7.00
2023-05-17T02:52:53.649Z,7.60
2023-05-17T02:53:56.122Z,7.40
2023-05-17T02:54:58.803Z,7.60
2023-05-17T02:56:01.517Z,8.50
2023-05-17T02:57:05.223Z,7.80
2023-05-17T02:58:07.762Z,7.40
2023-05-17T02:59:11.391Z,6.70
2023-05-17T03:00:16.213Z,7.90
2023-05-17T03:01:18.801Z,7.50
2023-05-17T03:02:21.408Z,6.70
2023-05-17T03:03:24.671Z,7.00
2023-05-17T03:04:27.143Z,7.80
2023-05-17T03:05:31.681Z,8.30
2023-05-17T03:06:34.620Z,7.91
2023-05-17T03:07:37.777Z,8.00
2023-05-17T03:08:40.433Z,8.60
2023-05-17T03:09:44.091Z,7.70
2023-05-17T03:10:48.366Z,6.90
2023-05-17T03:11:51.255Z,7.80
2023-05-17T03:12:56.605Z,8.90
2023-05-17T03:14:01.030Z,9.20
2023-05-17T03:15:06.287Z,8.30
2023-05-17T03:16:10.183Z,8.40
2023-05-17T03:17:13.758Z,8.70
2023-05-17T03:18:16.766Z,8.20
2023-05-17T03:19:20.002Z,8.20
2023-05-17T03:20:24.195Z,7.45
2023-05-17T03:21:26.707Z,8.30
2023-05-17T03:22:29.281Z,7.30
2023-05-17T03:23:34.942Z,8.30
2023-05-17T03:24:38.407Z,7.60
2023-05-17T03:25:41.085Z,9.10
2023-05-17T03:26:45.772Z,6.30
2023-05-17T03:27:48.855Z,6.50
2023-05-17T03:28:51.296Z,7.60
2023-05-17T03:29:55.270Z,9.20
2023-05-17T03:30:59.629Z,8.90
2023-05-17T03:32:04.828Z,7.80
2023-05-17T03:33:07.574Z,8.50
2023-05-17T03:34:11.551Z,6.45
2023-05-17T03:35:14.319Z,8.50
2023-05-17T03:36:19.758Z,8.70
2023-05-17T03:37:22.778Z,9.40
2023-05-17T03:38:26.070Z,8.60
2023-05-17T03:39:28.807Z,8.00
2023-05-17T03:40:31.440Z,9.36
2023-05-17T03:41:34.776Z,8.60
2023-05-17T03:42:38.541Z,9.00
2023-05-17T03:43:42.442Z,6.50
2023-05-17T03:44:46.855Z,8.90
2023-05-17T03:45:49.388Z,10.20
2023-05-17T03:46:53.253Z,8.50
2023-05-17T03:47:56.904Z,10.30
2023-05-17T03:49:00.827Z,8.90
2023-05-17T03:50:05.962Z,8.30
2023-05-17T03:51:09.745Z,8.50
2023-05-17T03:52:12.180Z,9.80
2023-05-17T03:53:14.989Z,9.50
2023-05-17T03:54:18.277Z,9.90
2023-05-17T03:55:21.226Z,8.00
2023-05-17T03:56:25.427Z,8.00
2023-05-17T03:57:28.466Z,8.80
2023-05-17T03:58:31.803Z,9.00
2023-05-17T03:59:34.200Z,9.90
2023-05-17T04:00:37.414Z,9.50
2023-05-17T04:01:43.243Z,6.50
2023-05-17T04:02:46.105Z,9.00
2023-05-17T04:03:49.590Z,8.30
2023-05-17T04:04:52.631Z,10.20
2023-05-17T04:06:05.537Z,8.30
2023-05-17T04:07:09.987Z,9.10
2023-05-17T04:08:12.669Z,10.00
2023-05-17T04:09:14.962Z,10.20
2023-05-17T04:10:18.613Z,9.20
2023-05-17T04:11:23.219Z,9.00
2023-05-17T04:12:26.091Z,7.40
2023-05-17T04:13:29.028Z,8.40
2023-05-17T04:14:31.336Z,10.10
2023-05-17T04:15:34.366Z,8.00
2023-05-17T04:16:37.878Z,8.70
2023-05-17T04:17:40.885Z,9.50
2023-05-17T04:18:45.158Z,8.50
2023-05-17T04:19:48.230Z,9.30
2023-05-17T04:20:51.878Z,9.50
2023-05-17T04:21:54.802Z,10.00
2023-05-17T04:22:58.568Z,10.00
2023-05-17T04:24:01.943Z,9.70
2023-05-17T04:25:05.003Z,9.30
2023-05-17T04:26:09.480Z,8.90
2023-05-17T04:27:13.969Z,9.80
2023-05-17T04:28:17.007Z,10.80
2023-05-17T04:29:20.765Z,9.60
2023-05-17T04:30:23.589Z,9.30
2023-05-17T04:31:26.157Z,9.10
2023-05-17T04:32:28.976Z,8.50
2023-05-17T04:33:31.972Z,9.50
2023-05-17T04:34:34.627Z,8.60
2023-05-17T04:35:38.778Z,10.36
2023-05-17T04:36:41.937Z,8.60
2023-05-17T04:37:45.179Z,9.80
2023-05-17T04:38:49.776Z,10.10
2023-05-17T04:39:54.333Z,8.50
2023-05-17T04:41:07.539Z,11.30
2023-05-17T04:42:11.972Z,9.30
2023-05-17T04:43:16.293Z,10.40
2023-05-17T04:44:18.773Z,7.80
2023-05-17T04:45:21.772Z,10.60
2023-05-17T04:46:27.214Z,9.80
2023-05-17T04:47:30.184Z,10.00
2023-05-17T04:48:33.168Z,4.30
2023-05-17T04:49:36.792Z,10.91
2023-05-17T04:50:39.317Z,9.80
2023-05-17T04:51:41.788Z,11.20
2023-05-17T04:52:47.018Z,9.27
2023-05-17T04:53:49.794Z,8.20
2023-05-17T04:54:53.600Z,10.10
2023-05-17T04:55:57.125Z,5.80
2023-05-17T04:57:00.207Z,10.40
2023-05-17T04:58:16.272Z,9.90
2023-05-17T04:59:19.608Z,8.50
2023-05-17T05:00:23.339Z,9.80
2023-05-17T05:01:28.928Z,9.30
2023-05-17T05:02:32.220Z,8.80
2023-05-17T05:03:36.150Z,7.80
2023-05-17T05:04:40.038Z,9.10
2023-05-17T05:05:43.461Z,9.50
2023-05-17T05:06:46.746Z,10.40
2023-05-17T05:07:50.541Z,9.80
2023-05-17T05:08:53.286Z,9.50
2023-05-17T05:09:55.933Z,8.36
2023-05-17T05:10:59.539Z,8.00
2023-05-17T05:12:04.226Z,10.30
2023-05-17T05:13:06.657Z,10.30
2023-05-17T05:14:09.270Z,8.20
2023-05-17T05:15:12.226Z,8.73
2023-05-17T05:16:17.385Z,11.50
2023-05-17T05:17:20.411Z,11.10
2023-05-17T05:18:23.646Z,11.20
2023-05-17T05:19:26.479Z,11.30
2023-05-17T05:20:31.556Z,10.00
2023-05-17T05:21:34.291Z,12.00
2023-05-17T05:22:36.864Z,6.00
2023-05-17T05:23:39.414Z,10.00
2023-05-17T05:24:44.853Z,9.90
2023-05-17T05:25:48.261Z,7.90
2023-05-17T05:26:51.227Z,10.70
2023-05-17T05:27:54.502Z,10.30
2023-05-17T05:28:57.887Z,8.45
2023-05-17T05:30:01.376Z,9.50
2023-05-17T05:31:04.475Z,11.30
2023-05-17T05:32:08.916Z,10.90
2023-05-17T05:33:13.860Z,9.90
2023-05-17T05:34:16.974Z,6.30
2023-05-17T05:35:22.711Z,7.90
2023-05-17T05:36:25.478Z,9.90
2023-05-17T05:37:29.535Z,9.40
2023-05-17T05:38:31.983Z,10.90
2023-05-17T05:39:34.886Z,9.00
2023-05-17T05:40:39.651Z,9.10
2023-05-17T05:41:43.391Z,8.20
2023-05-17T05:42:45.917Z,10.50
2023-05-17T05:43:48.219Z,11.00
2023-05-17T05:44:50.628Z,10.10
2023-05-17T05:45:53.483Z,10.09
2023-05-17T05:46:58.391Z,9.00
2023-05-17T05:48:01.274Z,9.80
2023-05-17T05:49:04.401Z,9.90
2023-05-17T05:50:08.979Z,8.50
2023-05-17T05:51:12.013Z,7.90
2023-05-17T05:52:16.506Z,8.70
2023-05-17T05:53:20.033Z,8.45
2023-05-17T05:54:30.753Z,9.40
2023-05-17T05:55:33.606Z,7.90
2023-05-17T05:56:36.130Z,10.50
2023-05-17T05:57:38.737Z,8.30
2023-05-17T05:58:42.374Z,9.10
2023-05-17T05:59:45.617Z,9.00
2023-05-17T06:00:48.295Z,9.64
2023-05-17T06:01:53.413Z,9.10
2023-05-17T06:02:56.870Z,9.00
2023-05-17T06:03:59.994Z,8.90
2023-05-17T06:05:03.219Z,7.70
2023-05-17T06:06:07.465Z,9.00
2023-05-17T06:07:10.358Z,9.50
2023-05-17T06:08:12.909Z,6.09
2023-05-17T06:09:16.198Z,9.00
2023-05-17T06:10:19.143Z,5.70
2023-05-17T06:11:23.317Z,7.20
2023-05-17T06:12:25.890Z,8.10
2023-05-17T06:13:29.592Z,8.70
2023-05-17T06:14:32.539Z,6.70
2023-05-17T06:15:36.305Z,6.70
2023-05-17T06:16:39.034Z,7.70
2023-05-17T06:17:41.427Z,8.70
2023-05-17T06:18:44.018Z,7.30
2023-05-17T06:19:48.305Z,6.80
2023-05-17T06:20:51.534Z,8.10
2023-05-17T06:21:54.348Z,6.64
2023-05-17T06:22:57.037Z,8.40
2023-05-17T06:23:59.406Z,6.40
2023-05-17T06:25:02.018Z,8.00
2023-05-17T06:26:07.528Z,8.09
2023-05-17T06:27:10.140Z,7.30
2023-05-17T06:28:12.608Z,8.80
2023-05-17T06:29:15.246Z,7.60
2023-05-17T06:30:18.379Z,7.18
2023-05-17T06:31:21.221Z,7.64
2023-05-17T06:32:25.109Z,7.40
2023-05-17T06:33:27.538Z,7.80
2023-05-17T06:34:30.088Z,7.70
2023-05-17T06:35:40.799Z,8.10
2023-05-17T06:36:40.763Z,8.40
2023-05-17T06:37:49.352Z,6.90
2023-05-17T06:38:47.870Z,8.40
2023-05-17T06:40:00.125Z,5.80
2023-05-17T06:40:58.491Z,7.90
2023-05-17T06:42:01.446Z,8.70
2023-05-17T06:43:05.276Z,8.80
2023-05-17T06:44:08.679Z,8.00
2023-05-17T06:45:11.760Z,6.00
2023-05-17T06:46:14.966Z,6.60
2023-05-17T06:47:20.173Z,6.70
2023-05-17T06:48:23.115Z,4.40
2023-05-17T06:49:26.633Z,7.64
2023-05-17T06:50:31.084Z,7.60
2023-05-17T06:51:33.775Z,6.90
2023-05-17T06:52:36.355Z,7.10
2023-05-17T06:53:39.519Z,6.64
2023-05-17T06:54:42.038Z,6.20
2023-05-17T06:55:44.600Z,5.50
2023-05-17T06:56:47.332Z,8.36
2023-05-17T06:57:50.623Z,6.00
2023-05-17T06:58:53.482Z,7.30
2023-05-17T06:59:56.122Z,6.64
2023-05-17T07:00:58.864Z,7.64
2023-05-17T07:02:01.327Z,7.80
2023-05-17T07:03:03.849Z,7.80
2023-05-17T07:04:08.500Z,8.36
2023-05-17T07:05:10.852Z,7.70
2023-05-17T07:06:13.760Z,7.09
2023-05-17T07:07:16.286Z,6.50
2023-05-17T07:08:18.864Z,8.30
2023-05-17T07:09:21.667Z,8.60
2023-05-17T07:10:24.062Z,6.60
2023-05-17T07:11:27.515Z,7.10
2023-05-17T07:12:30.060Z,7.20
2023-05-17T07:13:33.473Z,6.50
2023-05-17T07:14:37.056Z,7.60
2023-05-17T07:15:40.962Z,7.00
2023-05-17T07:16:43.715Z,6.30
2023-05-17T07:17:46.696Z,7.10
2023-05-17T07:18:49.358Z,6.60
2023-05-17T07:19:51.951Z,6.60
2023-05-17T07:20:55.934Z,7.70
2023-05-17T07:21:58.546Z,7.00
2023-05-17T07:23:00.951Z,7.10
2023-05-17T07:24:03.716Z,7.30
2023-05-17T07:25:08.067Z,3.82
2023-05-17T07:26:11.119Z,5.80
2023-05-17T07:27:13.750Z,7.10
2023-05-17T07:28:16.271Z,7.10
2023-05-17T07:29:19.650Z,6.55
2023-05-17T07:30:22.217Z,7.30
2023-05-17T07:31:25.103Z,5.60
2023-05-17T07:32:27.571Z,6.18
2023-05-17T07:33:30.486Z,6.90
2023-05-17T07:34:33.028Z,6.55
2023-05-17T07:35:37.809Z,6.27
2023-05-17T07:36:40.325Z,6.30
2023-05-17T07:37:42.858Z,7.09
2023-05-17T07:38:45.488Z,7.60
2023-05-17T07:39:49.256Z,6.10
2023-05-17T07:40:52.425Z,7.20
2023-05-17T07:41:55.655Z,6.20
2023-05-17T07:42:58.282Z,7.00
2023-05-17T07:44:00.869Z,7.80
2023-05-17T07:45:03.821Z,7.70
2023-05-17T07:46:06.708Z,7.00
2023-05-17T07:47:09.377Z,7.50
2023-05-17T07:48:11.934Z,6.10
2023-05-17T07:49:16.479Z,7.30
2023-05-17T07:50:19.135Z,7.40
2023-05-17T07:51:21.407Z,7.00
2023-05-17T07:52:23.934Z,7.00
2023-05-17T07:53:26.409Z,6.20
2023-05-17T07:54:29.311Z,6.80
2023-05-17T07:55:32.260Z,7.36
2023-05-17T07:56:36.134Z,7.30
2023-05-17T07:57:38.841Z,5.60
2023-05-17T07:58:42.217Z,7.00
2023-05-17T07:59:45.091Z,7.00
2023-05-17T08:00:49.099Z,5.00
2023-05-17T08:01:52.142Z,7.30
2023-05-17T08:02:57.191Z,6.40
2023-05-17T08:03:59.893Z,7.80
2023-05-17T08:05:02.732Z,6.73
2023-05-17T08:06:05.482Z,5.82
2023-05-17T08:07:08.024Z,6.50
2023-05-17T08:08:10.580Z,6.50
2023-05-17T08:09:13.165Z,6.90
2023-05-17T08:10:16.152Z,6.80
2023-05-17T08:11:19.706Z,6.50
2023-05-17T08:12:23.228Z,5.70
2023-05-17T08:13:29.346Z,5.40
2023-05-17T08:14:31.766Z,3.30
2023-05-17T08:15:34.241Z,6.40
2023-05-17T08:16:37.145Z,6.50
2023-05-17T08:17:40.100Z,7.00
2023-05-17T08:18:43.849Z,6.09
2023-05-17T08:19:47.806Z,5.80
2023-05-17T08:20:50.833Z,6.20
2023-05-17T08:21:55.482Z,4.36
2023-05-17T08:22:58.017Z,7.00
2023-05-17T08:24:02.157Z,4.70
2023-05-17T08:25:06.570Z,5.00
2023-05-17T08:26:09.496Z,7.10
2023-05-17T08:27:12.138Z,6.36
2023-05-17T08:28:14.978Z,7.90
2023-05-17T08:29:17.302Z,6.09
2023-05-17T08:30:28.975Z,5.80
2023-05-17T08:31:24.552Z,6.10
2023-05-17T08:32:29.935Z,6.18
2023-05-17T08:33:32.841Z,6.20
2023-05-17T08:34:36.213Z,5.30
2023-05-17T08:35:38.820Z,5.10
2023-05-17T08:36:42.308Z,5.70
2023-05-17T08:37:45.636Z,6.50
2023-05-17T08:38:49.305Z,6.10
2023-05-17T08:39:52.108Z,6.40
2023-05-17T08:40:55.064Z,5.70
2023-05-17T08:41:59.017Z,6.20
2023-05-17T08:43:02.722Z,6.20
2023-05-17T08:44:05.866Z,5.70
2023-05-17T08:45:10.118Z,6.50
2023-05-17T08:46:15.434Z,5.70
2023-05-17T08:47:28.065Z,6.70
2023-05-17T08:48:31.678Z,5.90
2023-05-17T08:49:37.896Z,6.80
2023-05-17T08:50:41.151Z,5.80
2023-05-17T08:51:46.883Z,6.00
2023-05-17T08:52:49.788Z,3.00
2023-05-17T08:53:52.835Z,5.70
2023-05-17T08:54:55.815Z,5.64
2023-05-17T08:56:00.974Z,5.40
2023-05-17T08:57:06.781Z,4.80
2023-05-17T08:58:11.743Z,5.80
2023-05-17T08:59:15.094Z,6.30
2023-05-17T09:00:21.331Z,4.90
2023-05-17T09:01:25.997Z,6.00
2023-05-17T09:02:31.016Z,6.10
2023-05-17T09:03:35.288Z,5.50
2023-05-17T09:04:38.979Z,5.30
2023-05-17T09:05:43.251Z,5.80
2023-05-17T09:06:46.584Z,5.60
2023-05-17T09:07:49.325Z,5.60
2023-05-17T09:08:54.038Z,5.00
2023-05-17T09:09:57.952Z,5.90
2023-05-17T09:11:00.514Z,4.60
2023-05-17T09:12:03.958Z,5.18
2023-05-17T09:13:07.116Z,4.70
2023-05-17T09:14:10.174Z,6.00
2023-05-17T09:15:16.716Z,5.20
2023-05-17T09:16:21.381Z,3.80
2023-05-17T09:17:24.472Z,5.50
2023-05-17T09:18:32.923Z,5.60
2023-05-17T09:19:39.302Z,4.20
2023-05-17T09:20:42.202Z,4.40
2023-05-17T09:21:48.525Z,4.10
2023-05-17T09:22:52.936Z,4.70
2023-05-17T09:24:05.306Z,1.80
2023-05-17T09:25:02.496Z,4.40
2023-05-17T09:26:08.258Z,4.80
2023-05-17T09:27:20.052Z,4.70
2023-05-17T09:28:23.106Z,4.30
2023-05-17T09:29:26.657Z,4.70
2023-05-17T09:30:32.817Z,3.60
2023-05-17T09:31:35.651Z,4.50
2023-05-17T09:32:44.365Z,5.00
2023-05-17T09:33:49.599Z,5.10
2023-05-17T09:34:52.202Z,3.30
2023-05-17T09:35:55.476Z,3.70
2023-05-17T09:36:58.135Z,5.20
2023-05-17T09:38:08.910Z,4.00
2023-05-17T09:39:14.237Z,4.30
2023-05-17T09:40:26.376Z,4.60
2023-05-17T09:41:44.988Z,5.20
2023-05-17T09:42:49.309Z,4.80
2023-05-17T09:43:52.113Z,5.00
2023-05-17T09:44:57.586Z,4.82
2023-05-17T09:46:00.096Z,5.30
2023-05-17T09:47:03.668Z,5.00
2023-05-17T09:48:17.184Z,4.80
2023-05-17T09:49:19.745Z,4.30
2023-05-17T09:50:25.379Z,4.10
2023-05-17T09:51:35.354Z,4.10
2023-05-17T09:52:40.571Z,5.20
2023-05-17T09:53:43.155Z,3.60
2023-05-17T09:54:55.236Z,4.90
2023-05-17T09:56:03.726Z,5.50
2023-05-17T09:57:08.433Z,4.60
2023-05-17T09:58:11.597Z,5.30
2023-05-17T09:59:15.577Z,5.60
2023-05-17T10:00:21.516Z,4.90
2023-05-17T10:01:27.355Z,5.40
2023-05-17T10:02:35.438Z,5.60
2023-05-17T10:03:39.652Z,5.70
2023-05-17T10:04:44.590Z,4.70
2023-05-17T10:05:50.939Z,5.60
2023-05-17T10:06:54.429Z,6.10
2023-05-17T10:07:57.143Z,6.00
2023-05-17T10:09:02.010Z,6.00
2023-05-17T10:10:06.629Z,6.22
2023-05-17T10:11:10.873Z,5.50
2023-05-17T10:12:23.709Z,6.20
2023-05-17T10:13:30.140Z,6.00
2023-05-17T10:14:35.398Z,5.20
2023-05-17T10:15:39.904Z,4.40
2023-05-17T10:16:43.150Z,4.00
2023-05-17T10:17:46.011Z,7.10
2023-05-17T10:18:49.694Z,6.20
2023-05-17T10:19:53.259Z,4.60
2023-05-17T10:20:57.794Z,5.70
2023-05-17T10:22:11.506Z,5.60
2023-05-17T10:23:07.623Z,7.20
2023-05-17T10:24:11.797Z,6.30
2023-05-17T10:25:15.075Z,6.90
2023-05-17T10:26:18.458Z,4.40
2023-05-17T10:27:22.492Z,5.90
2023-05-17T10:28:26.803Z,6.50
2023-05-17T10:29:34.211Z,6.20
2023-05-17T10:30:39.301Z,6.50
2023-05-17T10:31:45.898Z,5.90
2023-05-17T10:32:51.386Z,6.00
2023-05-17T10:33:54.612Z,5.20
2023-05-17T10:35:10.351Z,5.70
2023-05-17T10:36:07.970Z,6.30
2023-05-17T10:37:13.574Z,6.00
2023-05-17T10:38:17.688Z,6.20
2023-05-17T10:39:22.875Z,4.80
2023-05-17T10:40:25.389Z,6.20
2023-05-17T10:41:31.695Z,6.36
2023-05-17T10:42:36.015Z,6.50
2023-05-17T10:43:41.288Z,5.60
2023-05-17T10:44:44.032Z,5.60
2023-05-17T10:45:46.601Z,6.50
2023-05-17T10:46:54.825Z,5.55
2023-05-17T10:48:01.285Z,5.00
2023-05-17T10:49:04.040Z,5.40
2023-05-17T10:50:15.770Z,6.60
2023-05-17T10:51:26.835Z,6.30
2023-05-17T10:52:30.598Z,5.80
2023-05-17T10:53:33.322Z,5.40
2023-05-17T10:54:38.699Z,5.00
2023-05-17T10:55:44.230Z,6.40
2023-05-17T10:56:53.676Z,6.30
2023-05-17T10:58:12.877Z,5.00
2023-05-17T10:59:24.686Z,5.90
2023-05-17T11:00:29.983Z,4.70
2023-05-17T11:02:04.198Z,6.10
2023-05-17T11:03:21.226Z,5.10
2023-05-17T11:04:35.683Z,3.00
2023-05-17T11:05:43.024Z,4.70
2023-05-17T11:06:45.757Z,4.10
2023-05-17T11:07:48.308Z,6.70
2023-05-17T11:09:08.988Z,6.00
2023-05-17T11:10:13.410Z,5.00
2023-05-17T11:11:20.616Z,4.80
2023-05-17T11:12:41.260Z,5.30
2023-05-17T11:13:55.730Z,5.30
2023-05-17T11:14:58.624Z,6.10
2023-05-17T11:16:07.956Z,3.91
2023-05-17T11:17:17.560Z,6.00
2023-05-17T11:18:30.491Z,5.00
2023-05-17T11:19:25.953Z,5.40
2023-05-17T11:20:32.272Z,5.40
2023-05-17T11:21:35.463Z,5.40
2023-05-17T11:23:57.014Z,5.50
2023-05-17T11:25:01.515Z,3.50
2023-05-17T11:26:25.946Z,5.60
2023-05-17T11:27:32.927Z,4.50
2023-05-17T11:28:37.945Z,5.20
2023-05-17T11:29:41.862Z,5.60
2023-05-17T11:30:46.754Z,4.70
2023-05-17T11:31:51.577Z,3.20
2023-05-17T11:33:03.024Z,4.40
2023-05-17T11:34:07.308Z,3.30
2023-05-17T11:35:12.678Z,5.30
2023-05-17T11:36:18.937Z,3.60
2023-05-17T11:37:29.121Z,4.70
2023-05-17T11:38:32.298Z,5.10
2023-05-17T11:39:35.032Z,3.90
2023-05-17T11:40:38.812Z,3.00
2023-05-17T11:41:51.030Z,4.10
2023-05-17T11:43:13.573Z,3.40
2023-05-17T11:47:07.093Z,3.80
2023-05-17T11:48:13.625Z,4.00
2023-05-17T11:49:26.989Z,3.60
2023-05-17T11:51:44.841Z,4.50
2023-05-17T11:52:48.034Z,4.20
2023-05-17T11:53:51.339Z,2.60
2023-05-17T11:54:56.274Z,4.90
2023-05-17T11:56:02.515Z,3.50
2023-05-17T11:57:06.562Z,3.60
2023-05-17T11:58:14.549Z,3.40
2023-05-17T11:59:20.985Z,3.50
2023-05-17T12:00:28.385Z,2.70
2023-05-17T12:01:45.525Z,2.70
2023-05-17T12:02:47.998Z,3.00
2023-05-17T12:03:55.965Z,3.70
2023-05-17T12:04:59.113Z,3.30
2023-05-17T12:06:07.547Z,3.00
2023-05-17T12:07:11.484Z,4.00
2023-05-17T12:08:18.064Z,4.30
2023-05-17T12:09:22.491Z,3.90
2023-05-17T12:10:25.426Z,3.20
2023-05-17T12:11:28.613Z,3.55
2023-05-17T12:12:33.071Z,4.60
2023-05-17T12:13:35.558Z,4.00
2023-05-17T12:14:37.927Z,3.40
2023-05-17T12:15:42.824Z,4.20
2023-05-17T12:16:48.847Z,2.10
2023-05-17T12:17:53.370Z,3.60
2023-05-17T12:18:57.822Z,5.20
2023-05-17T12:20:09.088Z,4.30
2023-05-17T12:21:14.323Z,3.80
2023-05-17T12:22:17.142Z,3.30
2023-05-17T12:23:26.411Z,3.82
2023-05-17T12:24:32.301Z,2.50
2023-05-17T12:25:34.693Z,3.70
2023-05-17T12:26:45.427Z,3.40
2023-05-17T12:27:47.861Z,3.00
2023-05-17T12:28:55.983Z,4.00
2023-05-17T12:29:59.346Z,2.30
2023-05-17T12:31:03.348Z,4.70
2023-05-17T12:32:09.106Z,4.20
2023-05-17T12:33:12.120Z,3.30
2023-05-17T12:34:16.331Z,4.60
2023-05-17T12:35:18.829Z,3.80
2023-05-17T12:36:22.084Z,3.10
2023-05-17T12:37:24.321Z,2.30
2023-05-17T12:38:32.346Z,4.20
2023-05-17T12:39:35.159Z,3.10
2023-05-17T12:40:43.272Z,4.09
2023-05-17T12:41:46.955Z,4.00
2023-05-17T12:42:49.265Z,3.00
2023-05-17T12:43:55.002Z,3.90
2023-05-17T12:44:56.200Z,0.00
2023-05-17T12:46:10.997Z,5.10
2023-05-17T12:47:13.320Z,3.90
2023-05-17T12:48:15.779Z,4.20
2023-05-17T12:49:20.391Z,4.50
2023-05-17T12:50:31.874Z,7.10
2023-05-17T12:51:43.168Z,4.30
2023-05-17T12:52:47.256Z,4.50
2023-05-17T12:53:56.748Z,6.20
2023-05-17T12:55:00.431Z,6.60
2023-05-17T12:56:04.759Z,6.10
2023-05-17T12:57:15.340Z,6.10
2023-05-17T12:58:17.647Z,7.20
2023-05-17T12:59:24.708Z,6.70
2023-05-17T13:00:29.794Z,7.50
2023-05-17T13:01:34.524Z,7.40
2023-05-17T13:02:39.848Z,5.70
2023-05-17T13:03:47.114Z,6.50
2023-05-17T13:04:51.725Z,8.30
2023-05-17T13:06:04.598Z,8.40
2023-05-17T13:07:07.555Z,7.10
2023-05-17T13:08:22.130Z,6.36
2023-05-17T13:09:27.357Z,8.10
2023-05-17T13:10:30.967Z,7.00
2023-05-17T13:11:43.172Z,8.40
2023-05-17T13:12:58.747Z,7.10
2023-05-17T13:14:01.168Z,6.90
2023-05-17T13:15:06.829Z,6.40
2023-05-17T13:16:10.043Z,6.00
2023-05-17T13:17:27.658Z,5.70
2023-05-17T13:18:30.623Z,5.60
2023-05-17T13:19:35.305Z,4.50
2023-05-17T13:20:37.876Z,7.30
2023-05-17T13:21:41.404Z,8.00
2023-05-17T13:22:47.159Z,7.80
2023-05-17T13:23:50.085Z,7.90
2023-05-17T13:24:52.770Z,6.60
2023-05-17T13:25:55.478Z,8.00
2023-05-17T13:26:57.902Z,7.27
2023-05-17T13:28:01.868Z,8.00
2023-05-17T13:29:04.467Z,6.60
2023-05-17T13:30:09.260Z,7.40
2023-05-17T13:31:12.155Z,8.00
2023-05-17T13:32:14.835Z,6.60
2023-05-17T13:33:18.467Z,6.64
2023-05-17T13:34:21.142Z,6.50
2023-05-17T13:35:23.487Z,6.40
2023-05-17T13:36:26.804Z,5.55
2023-05-17T13:37:29.252Z,7.30
2023-05-17T13:38:32.039Z,6.10
2023-05-17T13:39:34.366Z,7.10
2023-05-17T13:40:37.480Z,6.70
2023-05-17T13:41:41.283Z,6.70
2023-05-17T13:42:44.072Z,6.20
2023-05-17T13:43:46.818Z,6.73
2023-05-17T13:44:49.454Z,6.90
2023-05-17T13:45:53.520Z,5.20
2023-05-17T13:46:56.193Z,4.70
2023-05-17T13:47:59.102Z,5.90
2023-05-17T13:49:08.071Z,6.20
2023-05-17T13:50:11.503Z,6.20
2023-05-17T13:51:14.186Z,5.91
2023-05-17T13:52:17.945Z,4.91
2023-05-17T13:53:21.420Z,7.00
2023-05-17T13:54:23.838Z,6.90
2023-05-17T13:55:26.179Z,5.40
2023-05-17T13:56:29.626Z,6.50
2023-05-17T13:57:32.401Z,6.20
2023-05-17T13:58:34.558Z,6.10
2023-05-17T13:59:37.209Z,6.80
2023-05-17T14:00:43.008Z,6.00
2023-05-17T14:01:45.513Z,6.30
2023-05-17T14:02:48.237Z,6.64
2023-05-17T14:03:50.925Z,6.70
2023-05-17T14:04:53.793Z,4.73
2023-05-17T14:05:57.175Z,5.73
2023-05-17T14:06:59.595Z,5.10
2023-05-17T14:08:02.684Z,6.20
2023-05-17T14:09:05.698Z,7.20
2023-05-17T14:10:11.710Z,5.60
2023-05-17T14:11:15.110Z,6.10
2023-05-17T14:12:17.526Z,6.90
2023-05-17T14:13:20.399Z,6.20
2023-05-17T14:14:24.634Z,5.90
2023-05-17T14:15:27.898Z,5.70
2023-05-17T14:16:32.111Z,6.10
2023-05-17T14:17:34.700Z,2.30
2023-05-17T14:18:37.160Z,6.20
2023-05-17T14:19:39.667Z,5.70
2023-05-17T14:20:42.311Z,6.18
2023-05-17T14:21:44.931Z,5.10
2023-05-17T14:22:48.211Z,5.55
2023-05-17T14:23:50.854Z,5.70
2023-05-17T14:24:54.248Z,6.10
2023-05-17T14:25:58.325Z,5.80